sensor_id;sensor_type;location;lat;lon;timestamp;P1;durP1;ratioP1;P2;durP2;ratioP2
43523;SDS011;29120;52.006;6.020;2022-08-03T00:01:26;4.55;;;0.30;;
43523;SDS011;29120;52.006;6.020;2022-08-03T00:03:51;1.40;;;0.30;;
43523;SDS011;29120;52.006;6.020;2022-08-03T00:06:17;2.00;;;0.50;;
43523;SDS011;29120;52.006;6.020;2022-08-03T00:08:43;3.75;;;0.50;;
43523;SDS011;29120;52.006;6.020;2022-08-03T00:11:08;2.20;;;0.40;;
43523;SDS011;29120;52.006;6.020;2022-08-03T00:13:34;4.13;;;0.47;;
43523;SDS011;29120;52.006;6.020;2022-08-03T00:15:59;4.97;;;0.60;;
43523;SDS011;29120;52.006;6.020;2022-08-03T00:18:25;1.80;;;0.40;;
43523;SDS011;29120;52.006;6.020;2022-08-03T00:20:50;3.97;;;0.60;;
43523;SDS011;29120;52.006;6.020;2022-08-03T00:23:16;3.63;;;0.45;;
43523;SDS011;29120;52.006;6.020;2022-08-03T00:25:41;4.03;;;0.40;;
43523;SDS011;29120;52.006;6.020;2022-08-03T00:28:07;2.55;;;0.40;;
43523;SDS011;29120;52.006;6.020;2022-08-03T00:30:33;9.02;;;0.50;;
43523;SDS011;29120;52.006;6.020;2022-08-03T00:32:59;3.78;;;0.40;;
43523;SDS011;29120;52.006;6.020;2022-08-03T00:35:25;3.20;;;0.43;;
43523;SDS011;29120;52.006;6.020;2022-08-03T00:37:52;3.15;;;0.30;;
43523;SDS011;29120;52.006;6.020;2022-08-03T00:40:18;2.35;;;0.32;;
43523;SDS011;29120;52.006;6.020;2022-08-03T00:42:48;2.03;;;0.38;;
43523;SDS011;29120;52.006;6.020;2022-08-03T00:45:16;2.30;;;0.40;;
43523;SDS011;29120;52.006;6.020;2022-08-03T00:47:42;3.50;;;0.70;;
43523;SDS011;29120;52.006;6.020;2022-08-03T00:50:08;2.50;;;0.32;;
43523;SDS011;29120;52.006;6.020;2022-08-03T00:52:34;4.00;;;0.50;;
43523;SDS011;29120;52.006;6.020;2022-08-03T00:55:00;1.95;;;0.70;;
43523;SDS011;29120;52.006;6.020;2022-08-03T00:57:27;2.70;;;0.35;;
43523;SDS011;29120;52.006;6.020;2022-08-03T00:59:54;4.10;;;0.38;;
43523;SDS011;29120;52.006;6.020;2022-08-03T01:02:20;2.45;;;0.35;;
43523;SDS011;29120;52.006;6.020;2022-08-03T01:04:45;2.45;;;0.45;;
43523;SDS011;29120;52.006;6.020;2022-08-03T01:07:16;1.60;;;0.52;;
43523;SDS011;29120;52.006;6.020;2022-08-03T01:12:31;3.35;;;0.43;;
43523;SDS011;29120;52.006;6.020;2022-08-03T01:17:50;4.25;;;0.40;;
43523;SDS011;29120;52.006;6.020;2022-08-03T01:20:21;2.42;;;0.63;;
43523;SDS011;29120;52.006;6.020;2022-08-03T01:28:55;2.95;;;0.52;;
43523;SDS011;29120;52.006;6.020;2022-08-03T01:31:31;3.85;;;0.38;;
43523;SDS011;29120;52.006;6.020;2022-08-03T01:34:03;4.70;;;0.60;;
43523;SDS011;29120;52.006;6.020;2022-08-03T01:36:34;7.93;;;0.93;;
43523;SDS011;29120;52.006;6.020;2022-08-03T01:39:03;2.97;;;0.47;;
43523;SDS011;29120;52.006;6.020;2022-08-03T01:41:36;1.77;;;0.40;;
43523;SDS011;29120;52.006;6.020;2022-08-03T01:44:07;1.60;;;0.32;;
43523;SDS011;29120;52.006;6.020;2022-08-03T01:46:34;2.15;;;0.40;;
43523;SDS011;29120;52.006;6.020;2022-08-03T01:49:02;4.15;;;0.47;;
43523;SDS011;29120;52.006;6.020;2022-08-03T01:51:30;3.97;;;0.88;;
43523;SDS011;29120;52.006;6.020;2022-08-03T01:53:57;3.33;;;0.63;;
43523;SDS011;29120;52.006;6.020;2022-08-03T01:56:25;3.28;;;0.50;;
43523;SDS011;29120;52.006;6.020;2022-08-03T01:58:53;3.03;;;0.60;;
43523;SDS011;29120;52.006;6.020;2022-08-03T02:01:20;2.20;;;0.43;;
43523;SDS011;29120;52.006;6.020;2022-08-03T02:03:47;4.47;;;0.40;;
43523;SDS011;29120;52.006;6.020;2022-08-03T02:06:14;3.33;;;0.57;;
43523;SDS011;29120;52.006;6.020;2022-08-03T02:08:42;1.08;;;0.40;;
43523;SDS011;29120;52.006;6.020;2022-08-03T02:11:09;3.28;;;0.45;;
43523;SDS011;29120;52.006;6.020;2022-08-03T02:13:36;5.05;;;0.63;;
43523;SDS011;29120;52.006;6.020;2022-08-03T02:16:03;2.55;;;0.40;;
43523;SDS011;29120;52.006;6.020;2022-08-03T02:18:31;1.88;;;0.50;;
43523;SDS011;29120;52.006;6.020;2022-08-03T02:20:58;1.80;;;0.45;;
43523;SDS011;29120;52.006;6.020;2022-08-03T02:23:26;4.28;;;0.43;;
43523;SDS011;29120;52.006;6.020;2022-08-03T02:25:52;3.28;;;0.60;;
43523;SDS011;29120;52.006;6.020;2022-08-03T02:28:23;6.65;;;0.80;;
43523;SDS011;29120;52.006;6.020;2022-08-03T02:30:55;4.47;;;0.80;;
43523;SDS011;29120;52.006;6.020;2022-08-03T02:33:27;2.85;;;0.73;;
43523;SDS011;29120;52.006;6.020;2022-08-03T02:35:57;3.15;;;0.43;;
43523;SDS011;29120;52.006;6.020;2022-08-03T02:38:27;4.22;;;0.60;;
43523;SDS011;29120;52.006;6.020;2022-08-03T02:40:57;4.72;;;0.50;;
43523;SDS011;29120;52.006;6.020;2022-08-03T02:43:23;3.75;;;0.70;;
43523;SDS011;29120;52.006;6.020;2022-08-03T02:45:50;2.05;;;0.40;;
43523;SDS011;29120;52.006;6.020;2022-08-03T02:48:19;5.30;;;0.60;;
43523;SDS011;29120;52.006;6.020;2022-08-03T02:50:50;2.60;;;0.43;;
43523;SDS011;29120;52.006;6.020;2022-08-03T02:53:17;2.08;;;0.35;;
43523;SDS011;29120;52.006;6.020;2022-08-03T02:55:45;4.68;;;0.35;;
43523;SDS011;29120;52.006;6.020;2022-08-03T02:58:13;5.10;;;0.40;;
43523;SDS011;29120;52.006;6.020;2022-08-03T03:00:41;3.15;;;0.75;;
43523;SDS011;29120;52.006;6.020;2022-08-03T03:03:09;3.25;;;0.50;;
43523;SDS011;29120;52.006;6.020;2022-08-03T03:05:35;4.25;;;0.40;;
43523;SDS011;29120;52.006;6.020;2022-08-03T03:08:02;1.50;;;0.30;;
43523;SDS011;29120;52.006;6.020;2022-08-03T03:10:28;4.63;;;0.40;;
43523;SDS011;29120;52.006;6.020;2022-08-03T03:12:55;3.25;;;0.50;;
43523;SDS011;29120;52.006;6.020;2022-08-03T03:15:25;2.25;;;0.40;;
43523;SDS011;29120;52.006;6.020;2022-08-03T03:17:52;1.98;;;0.38;;
43523;SDS011;29120;52.006;6.020;2022-08-03T03:20:19;2.80;;;0.57;;
43523;SDS011;29120;52.006;6.020;2022-08-03T03:22:46;2.47;;;0.50;;
43523;SDS011;29120;52.006;6.020;2022-08-03T03:25:14;2.63;;;0.80;;
43523;SDS011;29120;52.006;6.020;2022-08-03T03:27:41;2.67;;;0.60;;
43523;SDS011;29120;52.006;6.020;2022-08-03T03:30:07;7.50;;;0.50;;
43523;SDS011;29120;52.006;6.020;2022-08-03T03:32:33;6.80;;;0.47;;
43523;SDS011;29120;52.006;6.020;2022-08-03T03:35:00;3.33;;;0.50;;
43523;SDS011;29120;52.006;6.020;2022-08-03T03:37:26;3.30;;;0.50;;
43523;SDS011;29120;52.006;6.020;2022-08-03T03:39:52;4.53;;;0.57;;
43523;SDS011;29120;52.006;6.020;2022-08-03T03:42:19;2.13;;;0.55;;
43523;SDS011;29120;52.006;6.020;2022-08-03T03:44:45;3.53;;;0.50;;
43523;SDS011;29120;52.006;6.020;2022-08-03T03:47:10;3.25;;;0.63;;
43523;SDS011;29120;52.006;6.020;2022-08-03T03:49:37;3.65;;;0.40;;
43523;SDS011;29120;52.006;6.020;2022-08-03T03:52:03;2.10;;;0.70;;
43523;SDS011;29120;52.006;6.020;2022-08-03T03:54:42;3.17;;;0.63;;
43523;SDS011;29120;52.006;6.020;2022-08-03T03:57:09;2.03;;;0.50;;
43523;SDS011;29120;52.006;6.020;2022-08-03T03:59:38;3.95;;;0.43;;
43523;SDS011;29120;52.006;6.020;2022-08-03T04:02:08;6.28;;;0.40;;
43523;SDS011;29120;52.006;6.020;2022-08-03T04:04:35;7.20;;;0.40;;
43523;SDS011;29120;52.006;6.020;2022-08-03T04:07:19;2.60;;;0.45;;
43523;SDS011;29120;52.006;6.020;2022-08-03T04:10:20;3.08;;;0.45;;
43523;SDS011;29120;52.006;6.020;2022-08-03T04:13:07;2.13;;;0.40;;
43523;SDS011;29120;52.006;6.020;2022-08-03T04:15:37;5.03;;;0.57;;
43523;SDS011;29120;52.006;6.020;2022-08-03T04:18:04;4.28;;;0.47;;
43523;SDS011;29120;52.006;6.020;2022-08-03T04:20:34;3.50;;;0.50;;
43523;SDS011;29120;52.006;6.020;2022-08-03T04:23:01;1.88;;;0.40;;
43523;SDS011;29120;52.006;6.020;2022-08-03T04:25:29;4.18;;;0.50;;
43523;SDS011;29120;52.006;6.020;2022-08-03T04:27:57;1.48;;;0.43;;
43523;SDS011;29120;52.006;6.020;2022-08-03T04:30:26;5.43;;;0.90;;
43523;SDS011;29120;52.006;6.020;2022-08-03T04:32:56;2.63;;;0.50;;
43523;SDS011;29120;52.006;6.020;2022-08-03T04:35:23;4.18;;;0.70;;
43523;SDS011;29120;52.006;6.020;2022-08-03T04:37:51;2.85;;;0.50;;
43523;SDS011;29120;52.006;6.020;2022-08-03T04:40:24;3.85;;;0.60;;
43523;SDS011;29120;52.006;6.020;2022-08-03T04:42:54;3.33;;;0.80;;
43523;SDS011;29120;52.006;6.020;2022-08-03T04:45:20;5.18;;;0.52;;
43523;SDS011;29120;52.006;6.020;2022-08-03T04:47:47;1.77;;;0.43;;
43523;SDS011;29120;52.006;6.020;2022-08-03T04:50:13;4.30;;;0.50;;
43523;SDS011;29120;52.006;6.020;2022-08-03T04:52:39;3.45;;;0.50;;
43523;SDS011;29120;52.006;6.020;2022-08-03T04:55:05;2.33;;;0.50;;
43523;SDS011;29120;52.006;6.020;2022-08-03T04:57:31;2.08;;;0.50;;
43523;SDS011;29120;52.006;6.020;2022-08-03T04:59:57;3.65;;;0.50;;
43523;SDS011;29120;52.006;6.020;2022-08-03T05:02:22;2.92;;;0.40;;
43523;SDS011;29120;52.006;6.020;2022-08-03T05:04:48;4.65;;;0.50;;
43523;SDS011;29120;52.006;6.020;2022-08-03T05:07:14;5.97;;;0.40;;
43523;SDS011;29120;52.006;6.020;2022-08-03T05:09:41;2.15;;;0.40;;
43523;SDS011;29120;52.006;6.020;2022-08-03T05:12:07;5.03;;;1.08;;
43523;SDS011;29120;52.006;6.020;2022-08-03T05:14:33;2.35;;;0.40;;
43523;SDS011;29120;52.006;6.020;2022-08-03T05:17:06;3.58;;;0.50;;
43523;SDS011;29120;52.006;6.020;2022-08-03T05:19:33;7.38;;;0.88;;
43523;SDS011;29120;52.006;6.020;2022-08-03T05:21:59;2.65;;;0.88;;
43523;SDS011;29120;52.006;6.020;2022-08-03T05:24:24;3.05;;;0.80;;
43523;SDS011;29120;52.006;6.020;2022-08-03T05:26:50;2.95;;;0.73;;
43523;SDS011;29120;52.006;6.020;2022-08-03T05:29:15;4.80;;;0.65;;
43523;SDS011;29120;52.006;6.020;2022-08-03T05:31:41;7.22;;;1.13;;
43523;SDS011;29120;52.006;6.020;2022-08-03T05:34:07;3.05;;;0.98;;
43523;SDS011;29120;52.006;6.020;2022-08-03T05:36:32;3.22;;;1.02;;
43523;SDS011;29120;52.006;6.020;2022-08-03T05:38:58;2.78;;;0.80;;
43523;SDS011;29120;52.006;6.020;2022-08-03T05:41:23;5.00;;;0.90;;
43523;SDS011;29120;52.006;6.020;2022-08-03T05:43:52;3.15;;;1.17;;
43523;SDS011;29120;52.006;6.020;2022-08-03T05:46:18;3.97;;;1.33;;
43523;SDS011;29120;52.006;6.020;2022-08-03T05:48:45;4.65;;;1.20;;
43523;SDS011;29120;52.006;6.020;2022-08-03T05:51:10;3.08;;;0.85;;
43523;SDS011;29120;52.006;6.020;2022-08-03T05:53:37;6.00;;;1.17;;
43523;SDS011;29120;52.006;6.020;2022-08-03T05:56:04;8.65;;;1.30;;
43523;SDS011;29120;52.006;6.020;2022-08-03T05:58:30;6.03;;;1.20;;
43523;SDS011;29120;52.006;6.020;2022-08-03T06:00:55;7.03;;;1.05;;
43523;SDS011;29120;52.006;6.020;2022-08-03T06:03:21;8.27;;;1.27;;
43523;SDS011;29120;52.006;6.020;2022-08-03T06:05:46;7.65;;;1.17;;
43523;SDS011;29120;52.006;6.020;2022-08-03T06:08:12;5.50;;;1.45;;
43523;SDS011;29120;52.006;6.020;2022-08-03T06:10:37;9.10;;;0.90;;
43523;SDS011;29120;52.006;6.020;2022-08-03T06:13:03;7.72;;;1.05;;
43523;SDS011;29120;52.006;6.020;2022-08-03T06:15:29;6.85;;;1.10;;
43523;SDS011;29120;52.006;6.020;2022-08-03T06:17:57;3.33;;;0.73;;
43523;SDS011;29120;52.006;6.020;2022-08-03T06:20:22;7.18;;;0.90;;
43523;SDS011;29120;52.006;6.020;2022-08-03T06:22:49;6.90;;;1.08;;
43523;SDS011;29120;52.006;6.020;2022-08-03T06:25:14;7.03;;;1.05;;
43523;SDS011;29120;52.006;6.020;2022-08-03T06:27:40;4.57;;;0.85;;
43523;SDS011;29120;52.006;6.020;2022-08-03T06:30:07;9.90;;;1.20;;
43523;SDS011;29120;52.006;6.020;2022-08-03T06:32:37;5.57;;;0.77;;
43523;SDS011;29120;52.006;6.020;2022-08-03T06:35:05;6.20;;;0.63;;
43523;SDS011;29120;52.006;6.020;2022-08-03T06:37:40;8.00;;;0.90;;
43523;SDS011;29120;52.006;6.020;2022-08-03T06:40:13;5.75;;;0.80;;
43523;SDS011;29120;52.006;6.020;2022-08-03T06:42:40;4.40;;;1.17;;
43523;SDS011;29120;52.006;6.020;2022-08-03T06:45:06;6.25;;;0.82;;
43523;SDS011;29120;52.006;6.020;2022-08-03T06:47:33;8.55;;;0.88;;
43523;SDS011;29120;52.006;6.020;2022-08-03T06:50:00;3.85;;;0.65;;
43523;SDS011;29120;52.006;6.020;2022-08-03T06:52:25;8.43;;;1.00;;
43523;SDS011;29120;52.006;6.020;2022-08-03T06:54:51;6.80;;;1.00;;
43523;SDS011;29120;52.006;6.020;2022-08-03T06:57:16;8.88;;;0.77;;
43523;SDS011;29120;52.006;6.020;2022-08-03T06:59:43;7.40;;;1.13;;
43523;SDS011;29120;52.006;6.020;2022-08-03T07:02:08;5.75;;;1.40;;
43523;SDS011;29120;52.006;6.020;2022-08-03T07:04:35;5.57;;;1.08;;
43523;SDS011;29120;52.006;6.020;2022-08-03T07:07:01;5.30;;;1.10;;
43523;SDS011;29120;52.006;6.020;2022-08-03T07:09:26;5.65;;;0.90;;
43523;SDS011;29120;52.006;6.020;2022-08-03T07:11:52;2.38;;;0.60;;
43523;SDS011;29120;52.006;6.020;2022-08-03T07:14:19;10.18;;;0.65;;
43523;SDS011;29120;52.006;6.020;2022-08-03T07:16:45;10.38;;;1.20;;
43523;SDS011;29120;52.006;6.020;2022-08-03T07:19:10;6.32;;;0.70;;
43523;SDS011;29120;52.006;6.020;2022-08-03T07:21:36;6.60;;;0.55;;
43523;SDS011;29120;52.006;6.020;2022-08-03T07:24:01;5.63;;;0.63;;
43523;SDS011;29120;52.006;6.020;2022-08-03T07:26:28;12.15;;;1.23;;
43523;SDS011;29120;52.006;6.020;2022-08-03T07:28:53;8.68;;;1.08;;
43523;SDS011;29120;52.006;6.020;2022-08-03T07:31:19;8.27;;;0.98;;
43523;SDS011;29120;52.006;6.020;2022-08-03T07:33:44;10.20;;;0.93;;
43523;SDS011;29120;52.006;6.020;2022-08-03T07:36:10;7.20;;;0.70;;
43523;SDS011;29120;52.006;6.020;2022-08-03T07:38:35;6.50;;;0.65;;
43523;SDS011;29120;52.006;6.020;2022-08-03T07:41:01;7.28;;;0.80;;
43523;SDS011;29120;52.006;6.020;2022-08-03T07:43:28;16.27;;;1.67;;
43523;SDS011;29120;52.006;6.020;2022-08-03T07:45:53;6.78;;;1.02;;
43523;SDS011;29120;52.006;6.020;2022-08-03T07:48:19;12.43;;;1.10;;
43523;SDS011;29120;52.006;6.020;2022-08-03T07:50:44;7.68;;;0.90;;
43523;SDS011;29120;52.006;6.020;2022-08-03T07:53:10;6.50;;;1.10;;
43523;SDS011;29120;52.006;6.020;2022-08-03T07:55:36;9.75;;;0.95;;
43523;SDS011;29120;52.006;6.020;2022-08-03T07:58:03;5.72;;;0.82;;
43523;SDS011;29120;52.006;6.020;2022-08-03T08:00:30;14.63;;;1.08;;
43523;SDS011;29120;52.006;6.020;2022-08-03T08:02:56;4.78;;;0.65;;
43523;SDS011;29120;52.006;6.020;2022-08-03T08:05:22;10.50;;;0.85;;
43523;SDS011;29120;52.006;6.020;2022-08-03T08:07:47;11.32;;;1.00;;
43523;SDS011;29120;52.006;6.020;2022-08-03T08:10:13;7.57;;;0.50;;
43523;SDS011;29120;52.006;6.020;2022-08-03T08:12:39;11.48;;;0.98;;
43523;SDS011;29120;52.006;6.020;2022-08-03T08:15:06;5.90;;;0.60;;
43523;SDS011;29120;52.006;6.020;2022-08-03T08:17:54;8.70;;;0.70;;
43523;SDS011;29120;52.006;6.020;2022-08-03T08:20:20;4.95;;;0.70;;
43523;SDS011;29120;52.006;6.020;2022-08-03T08:22:50;7.88;;;0.73;;
43523;SDS011;29120;52.006;6.020;2022-08-03T08:25:16;8.88;;;1.00;;
43523;SDS011;29120;52.006;6.020;2022-08-03T08:27:45;7.63;;;0.90;;
43523;SDS011;29120;52.006;6.020;2022-08-03T08:30:12;6.90;;;0.57;;
43523;SDS011;29120;52.006;6.020;2022-08-03T08:32:39;13.27;;;1.10;;
43523;SDS011;29120;52.006;6.020;2022-08-03T08:35:05;11.10;;;0.70;;
43523;SDS011;29120;52.006;6.020;2022-08-03T08:37:32;11.63;;;0.90;;
43523;SDS011;29120;52.006;6.020;2022-08-03T08:39:58;6.32;;;0.70;;
43523;SDS011;29120;52.006;6.020;2022-08-03T08:42:24;8.93;;;0.93;;
43523;SDS011;29120;52.006;6.020;2022-08-03T08:44:49;8.05;;;0.82;;
43523;SDS011;29120;52.006;6.020;2022-08-03T08:47:16;7.63;;;1.05;;
43523;SDS011;29120;52.006;6.020;2022-08-03T08:49:43;10.05;;;0.80;;
43523;SDS011;29120;52.006;6.020;2022-08-03T08:52:12;9.35;;;0.70;;
43523;SDS011;29120;52.006;6.020;2022-08-03T08:54:38;13.45;;;1.15;;
43523;SDS011;29120;52.006;6.020;2022-08-03T08:57:06;14.40;;;0.82;;
43523;SDS011;29120;52.006;6.020;2022-08-03T08:59:33;14.40;;;1.10;;
43523;SDS011;29120;52.006;6.020;2022-08-03T09:01:59;14.48;;;1.10;;
43523;SDS011;29120;52.006;6.020;2022-08-03T09:04:26;12.85;;;0.95;;
43523;SDS011;29120;52.006;6.020;2022-08-03T09:06:53;13.27;;;1.67;;
43523;SDS011;29120;52.006;6.020;2022-08-03T09:09:19;16.23;;;1.50;;
43523;SDS011;29120;52.006;6.020;2022-08-03T09:11:44;14.98;;;1.42;;
43523;SDS011;29120;52.006;6.020;2022-08-03T09:14:13;11.80;;;1.35;;
43523;SDS011;29120;52.006;6.020;2022-08-03T09:16:38;11.85;;;1.00;;
43523;SDS011;29120;52.006;6.020;2022-08-03T09:19:20;14.80;;;1.15;;
43523;SDS011;29120;52.006;6.020;2022-08-03T09:21:46;15.18;;;1.42;;
43523;SDS011;29120;52.006;6.020;2022-08-03T09:24:54;9.48;;;0.80;;
43523;SDS011;29120;52.006;6.020;2022-08-03T09:27:21;17.88;;;1.35;;
43523;SDS011;29120;52.006;6.020;2022-08-03T09:29:47;11.95;;;0.88;;
43523;SDS011;29120;52.006;6.020;2022-08-03T09:32:14;8.20;;;1.10;;
43523;SDS011;29120;52.006;6.020;2022-08-03T09:34:43;9.65;;;0.73;;
43523;SDS011;29120;52.006;6.020;2022-08-03T09:37:14;14.13;;;1.48;;
43523;SDS011;29120;52.006;6.020;2022-08-03T09:39:41;15.68;;;1.30;;
43523;SDS011;29120;52.006;6.020;2022-08-03T09:42:25;15.90;;;1.55;;
43523;SDS011;29120;52.006;6.020;2022-08-03T09:44:51;17.80;;;1.50;;
43523;SDS011;29120;52.006;6.020;2022-08-03T09:47:27;9.20;;;0.80;;
43523;SDS011;29120;52.006;6.020;2022-08-03T09:49:56;10.95;;;1.17;;
43523;SDS011;29120;52.006;6.020;2022-08-03T09:52:29;17.55;;;1.67;;
43523;SDS011;29120;52.006;6.020;2022-08-03T09:54:57;15.30;;;1.13;;
43523;SDS011;29120;52.006;6.020;2022-08-03T09:57:24;11.00;;;1.25;;
43523;SDS011;29120;52.006;6.020;2022-08-03T09:59:51;13.70;;;1.13;;
43523;SDS011;29120;52.006;6.020;2022-08-03T10:04:49;11.52;;;0.80;;
43523;SDS011;29120;52.006;6.020;2022-08-03T10:07:16;9.98;;;1.10;;
43523;SDS011;29120;52.006;6.020;2022-08-03T10:09:59;11.35;;;0.73;;
43523;SDS011;29120;52.006;6.020;2022-08-03T10:12:25;12.93;;;1.30;;
43523;SDS011;29120;52.006;6.020;2022-08-03T10:14:52;11.23;;;1.15;;
43523;SDS011;29120;52.006;6.020;2022-08-03T10:17:19;13.20;;;1.48;;
43523;SDS011;29120;52.006;6.020;2022-08-03T10:19:46;17.13;;;1.33;;
43523;SDS011;29120;52.006;6.020;2022-08-03T10:22:13;7.88;;;1.02;;
43523;SDS011;29120;52.006;6.020;2022-08-03T10:24:45;8.80;;;0.90;;
43523;SDS011;29120;52.006;6.020;2022-08-03T10:27:23;12.38;;;0.82;;
43523;SDS011;29120;52.006;6.020;2022-08-03T10:29:51;14.88;;;1.20;;
43523;SDS011;29120;52.006;6.020;2022-08-03T10:35:11;9.57;;;0.60;;
43523;SDS011;29120;52.006;6.020;2022-08-03T10:37:41;12.65;;;1.02;;
43523;SDS011;29120;52.006;6.020;2022-08-03T10:40:10;14.20;;;1.30;;
43523;SDS011;29120;52.006;6.020;2022-08-03T10:42:43;11.13;;;0.80;;
43523;SDS011;29120;52.006;6.020;2022-08-03T10:45:15;14.02;;;1.38;;
43523;SDS011;29120;52.006;6.020;2022-08-03T10:47:44;10.50;;;0.88;;
43523;SDS011;29120;52.006;6.020;2022-08-03T10:50:11;13.60;;;1.00;;
43523;SDS011;29120;52.006;6.020;2022-08-03T10:52:56;7.18;;;0.80;;
43523;SDS011;29120;52.006;6.020;2022-08-03T10:58:44;8.15;;;0.80;;
43523;SDS011;29120;52.006;6.020;2022-08-03T11:01:01;14.75;;;1.77;;
43523;SDS011;29120;52.006;6.020;2022-08-03T11:03:31;11.95;;;1.20;;
43523;SDS011;29120;52.006;6.020;2022-08-03T11:08:43;7.15;;;0.80;;
43523;SDS011;29120;52.006;6.020;2022-08-03T11:13:46;11.48;;;1.27;;
43523;SDS011;29120;52.006;6.020;2022-08-03T11:16:29;9.82;;;0.80;;
43523;SDS011;29120;52.006;6.020;2022-08-03T11:18:59;14.85;;;1.25;;
43523;SDS011;29120;52.006;6.020;2022-08-03T11:43:06;10.50;;;1.10;;
43523;SDS011;29120;52.006;6.020;2022-08-03T11:45:32;9.88;;;1.08;;
43523;SDS011;29120;52.006;6.020;2022-08-03T11:47:59;7.55;;;0.90;;
43523;SDS011;29120;52.006;6.020;2022-08-03T11:50:36;10.38;;;1.13;;
43523;SDS011;29120;52.006;6.020;2022-08-03T11:53:02;8.93;;;1.23;;
43523;SDS011;29120;52.006;6.020;2022-08-03T11:55:30;9.07;;;1.02;;
43523;SDS011;29120;52.006;6.020;2022-08-03T11:57:59;10.23;;;1.10;;
43523;SDS011;29120;52.006;6.020;2022-08-03T12:00:29;9.07;;;1.23;;
43523;SDS011;29120;52.006;6.020;2022-08-03T12:05:32;9.25;;;0.82;;
43523;SDS011;29120;52.006;6.020;2022-08-03T12:08:06;10.57;;;1.48;;
43523;SDS011;29120;52.006;6.020;2022-08-03T12:10:32;10.75;;;0.93;;
43523;SDS011;29120;52.006;6.020;2022-08-03T12:12:59;14.05;;;1.17;;
43523;SDS011;29120;52.006;6.020;2022-08-03T12:15:26;8.05;;;0.80;;
43523;SDS011;29120;52.006;6.020;2022-08-03T12:17:58;10.85;;;1.13;;
43523;SDS011;29120;52.006;6.020;2022-08-03T12:20:24;8.70;;;0.70;;
43523;SDS011;29120;52.006;6.020;2022-08-03T12:22:52;6.53;;;0.68;;
43523;SDS011;29120;52.006;6.020;2022-08-03T12:25:19;8.63;;;0.85;;
43523;SDS011;29120;52.006;6.020;2022-08-03T12:27:50;7.00;;;0.60;;
43523;SDS011;29120;52.006;6.020;2022-08-03T12:30:16;7.55;;;0.60;;
43523;SDS011;29120;52.006;6.020;2022-08-03T12:32:42;9.93;;;0.70;;
43523;SDS011;29120;52.006;6.020;2022-08-03T12:35:08;11.85;;;1.23;;
43523;SDS011;29120;52.006;6.020;2022-08-03T12:37:34;6.07;;;0.85;;
43523;SDS011;29120;52.006;6.020;2022-08-03T12:40:01;10.18;;;0.73;;
43523;SDS011;29120;52.006;6.020;2022-08-03T12:42:29;10.32;;;0.90;;
43523;SDS011;29120;52.006;6.020;2022-08-03T12:44:55;9.48;;;1.15;;
43523;SDS011;29120;52.006;6.020;2022-08-03T12:47:20;9.35;;;1.30;;
43523;SDS011;29120;52.006;6.020;2022-08-03T12:49:47;5.40;;;0.90;;
43523;SDS011;29120;52.006;6.020;2022-08-03T12:52:14;7.18;;;0.80;;
43523;SDS011;29120;52.006;6.020;2022-08-03T12:54:41;7.20;;;0.40;;
43523;SDS011;29120;52.006;6.020;2022-08-03T12:57:08;7.60;;;0.70;;
43523;SDS011;29120;52.006;6.020;2022-08-03T12:59:36;5.18;;;0.60;;
43523;SDS011;29120;52.006;6.020;2022-08-03T13:02:15;6.85;;;0.73;;
43523;SDS011;29120;52.006;6.020;2022-08-03T13:04:43;7.50;;;0.80;;
43523;SDS011;29120;52.006;6.020;2022-08-03T13:07:10;5.22;;;0.73;;
43523;SDS011;29120;52.006;6.020;2022-08-03T13:09:43;8.32;;;0.60;;
43523;SDS011;29120;52.006;6.020;2022-08-03T13:12:18;9.80;;;0.60;;
43523;SDS011;29120;52.006;6.020;2022-08-03T13:14:49;9.40;;;0.60;;
43523;SDS011;29120;52.006;6.020;2022-08-03T13:17:16;6.57;;;0.50;;
43523;SDS011;29120;52.006;6.020;2022-08-03T13:19:43;4.28;;;0.40;;
43523;SDS011;29120;52.006;6.020;2022-08-03T13:22:17;6.43;;;0.40;;
43523;SDS011;29120;52.006;6.020;2022-08-03T13:24:45;6.55;;;0.50;;
43523;SDS011;29120;52.006;6.020;2022-08-03T13:27:12;3.85;;;0.40;;
43523;SDS011;29120;52.006;6.020;2022-08-03T13:29:38;4.30;;;0.38;;
43523;SDS011;29120;52.006;6.020;2022-08-03T13:32:04;2.97;;;0.60;;
43523;SDS011;29120;52.006;6.020;2022-08-03T13:34:30;3.35;;;0.47;;
43523;SDS011;29120;52.006;6.020;2022-08-03T13:36:56;4.25;;;0.30;;
43523;SDS011;29120;52.006;6.020;2022-08-03T13:39:22;2.53;;;0.40;;
43523;SDS011;29120;52.006;6.020;2022-08-03T13:41:47;4.28;;;0.80;;
43523;SDS011;29120;52.006;6.020;2022-08-03T13:44:13;4.68;;;0.40;;
43523;SDS011;29120;52.006;6.020;2022-08-03T13:46:39;4.40;;;0.45;;
43523;SDS011;29120;52.006;6.020;2022-08-03T13:49:05;4.28;;;0.30;;
43523;SDS011;29120;52.006;6.020;2022-08-03T13:51:31;3.97;;;0.30;;
43523;SDS011;29120;52.006;6.020;2022-08-03T13:53:57;6.30;;;0.40;;
43523;SDS011;29120;52.006;6.020;2022-08-03T13:56:24;1.00;;;0.20;;
43523;SDS011;29120;52.006;6.020;2022-08-03T13:58:50;3.33;;;0.50;;
43523;SDS011;29120;52.006;6.020;2022-08-03T14:01:16;5.10;;;0.40;;
43523;SDS011;29120;52.006;6.020;2022-08-03T14:03:41;1.77;;;0.20;;
43523;SDS011;29120;52.006;6.020;2022-08-03T14:06:07;3.22;;;0.20;;
43523;SDS011;29120;52.006;6.020;2022-08-03T14:08:32;1.67;;;0.10;;
43523;SDS011;29120;52.006;6.020;2022-08-03T14:10:58;1.85;;;0.20;;
43523;SDS011;29120;52.006;6.020;2022-08-03T14:13:23;3.35;;;0.28;;
43523;SDS011;29120;52.006;6.020;2022-08-03T14:15:49;1.10;;;0.10;;
43523;SDS011;29120;52.006;6.020;2022-08-03T14:18:20;3.10;;;0.20;;
43523;SDS011;29120;52.006;6.020;2022-08-03T14:20:46;2.15;;;0.30;;
43523;SDS011;29120;52.006;6.020;2022-08-03T14:23:12;2.33;;;0.30;;
43523;SDS011;29120;52.006;6.020;2022-08-03T14:25:38;2.45;;;0.30;;
43523;SDS011;29120;52.006;6.020;2022-08-03T14:28:05;2.58;;;0.20;;
43523;SDS011;29120;52.006;6.020;2022-08-03T14:30:31;3.60;;;0.20;;
43523;SDS011;29120;52.006;6.020;2022-08-03T14:32:56;2.63;;;0.20;;
43523;SDS011;29120;52.006;6.020;2022-08-03T14:35:25;2.50;;;0.47;;
43523;SDS011;29120;52.006;6.020;2022-08-03T14:37:53;1.90;;;0.30;;
43523;SDS011;29120;52.006;6.020;2022-08-03T14:40:19;2.00;;;0.30;;
43523;SDS011;29120;52.006;6.020;2022-08-03T14:42:45;3.33;;;0.30;;
43523;SDS011;29120;52.006;6.020;2022-08-03T14:45:11;2.17;;;0.20;;
43523;SDS011;29120;52.006;6.020;2022-08-03T14:47:37;1.92;;;0.20;;
43523;SDS011;29120;52.006;6.020;2022-08-03T14:50:03;3.35;;;0.30;;
43523;SDS011;29120;52.006;6.020;2022-08-03T14:52:29;1.60;;;0.30;;
43523;SDS011;29120;52.006;6.020;2022-08-03T14:54:56;1.13;;;0.20;;
43523;SDS011;29120;52.006;6.020;2022-08-03T14:57:21;1.40;;;0.20;;
43523;SDS011;29120;52.006;6.020;2022-08-03T14:59:47;0.82;;;0.20;;
43523;SDS011;29120;52.006;6.020;2022-08-03T15:02:13;1.60;;;0.20;;
43523;SDS011;29120;52.006;6.020;2022-08-03T15:04:38;3.13;;;0.20;;
43523;SDS011;29120;52.006;6.020;2022-08-03T15:07:04;2.60;;;0.30;;
43523;SDS011;29120;52.006;6.020;2022-08-03T15:09:30;1.35;;;0.20;;
43523;SDS011;29120;52.006;6.020;2022-08-03T15:11:56;1.17;;;0.22;;
43523;SDS011;29120;52.006;6.020;2022-08-03T15:14:22;4.22;;;0.20;;
43523;SDS011;29120;52.006;6.020;2022-08-03T15:16:47;1.92;;;0.20;;
43523;SDS011;29120;52.006;6.020;2022-08-03T15:19:13;5.15;;;0.28;;
43523;SDS011;29120;52.006;6.020;2022-08-03T15:21:38;1.92;;;0.30;;
43523;SDS011;29120;52.006;6.020;2022-08-03T15:24:04;3.20;;;0.20;;
43523;SDS011;29120;52.006;6.020;2022-08-03T15:26:30;2.55;;;0.35;;
43523;SDS011;29120;52.006;6.020;2022-08-03T15:28:56;1.02;;;0.20;;
43523;SDS011;29120;52.006;6.020;2022-08-03T15:31:22;1.52;;;0.20;;
43523;SDS011;29120;52.006;6.020;2022-08-03T15:33:48;4.22;;;0.20;;
43523;SDS011;29120;52.006;6.020;2022-08-03T15:36:15;1.70;;;0.30;;
43523;SDS011;29120;52.006;6.020;2022-08-03T15:38:41;1.92;;;0.20;;